sensor_id;sensor_type;location;lat;lon;timestamp;pressure;altitude;pressure_sealevel;temperature
71649;BMP180;59492;45.638;11.714;2022-11-03T00:01:33;101726.60;;;22.10
71649;BMP180;59492;45.638;11.714;2022-11-03T00:03:58;101727.80;;;22.10
71649;BMP180;59492;45.638;11.714;2022-11-03T00:06:24;101730.20;;;22.06
71649;BMP180;59492;45.638;11.714;2022-11-03T00:08:50;101731.00;;;22.00
71649;BMP180;59492;45.638;11.714;2022-11-03T00:11:15;101720.60;;;22.00
71649;BMP180;59492;45.638;11.714;2022-11-03T00:13:43;101719.20;;;21.96
71649;BMP180;59492;45.638;11.714;2022-11-03T00:16:10;101719.20;;;21.90
71649;BMP180;59492;45.638;11.714;2022-11-03T00:18:37;101720.80;;;21.90
71649;BMP180;59492;45.638;11.714;2022-11-03T00:21:10;101724.80;;;21.90
71649;BMP180;59492;45.638;11.714;2022-11-03T00:23:38;101729.20;;;21.84
71649;BMP180;59492;45.638;11.714;2022-11-03T00:28:32;101729.60;;;21.90
71649;BMP180;59492;45.638;11.714;2022-11-03T00:31:09;101726.40;;;21.90
71649;BMP180;59492;45.638;11.714;2022-11-03T00:33:36;101729.00;;;21.88
71649;BMP180;59492;45.638;11.714;2022-11-03T00:36:03;101727.40;;;21.82
71649;BMP180;59492;45.638;11.714;2022-11-03T00:38:29;101733.20;;;21.80
71649;BMP180;59492;45.638;11.714;2022-11-03T00:41:00;101739.60;;;21.80
71649;BMP180;59492;45.638;11.714;2022-11-03T00:43:28;101742.00;;;21.74
71649;BMP180;59492;45.638;11.714;2022-11-03T00:45:54;101746.60;;;21.70
71649;BMP180;59492;45.638;11.714;2022-11-03T00:48:20;101744.80;;;21.70
71649;BMP180;59492;45.638;11.714;2022-11-03T00:53:31;101741.00;;;21.60
71649;BMP180;59492;45.638;11.714;2022-11-03T00:55:57;101741.00;;;21.70
71649;BMP180;59492;45.638;11.714;2022-11-03T00:58:23;101735.60;;;21.70
71649;BMP180;59492;45.638;11.714;2022-11-03T01:00:49;101734.60;;;21.70
71649;BMP180;59492;45.638;11.714;2022-11-03T01:03:14;101733.80;;;21.68
71649;BMP180;59492;45.638;11.714;2022-11-03T01:05:41;101731.40;;;21.62
71649;BMP180;59492;45.638;11.714;2022-11-03T01:08:45;101731.40;;;21.50
71649;BMP180;59492;45.638;11.714;2022-11-03T01:11:16;101725.80;;;21.54
71649;BMP180;59492;45.638;11.714;2022-11-03T01:14:00;101725.80;;;21.50
71649;BMP180;59492;45.638;11.714;2022-11-03T01:16:26;101728.60;;;21.50
71649;BMP180;59492;45.638;11.714;2022-11-03T01:18:52;101727.20;;;21.50
71649;BMP180;59492;45.638;11.714;2022-11-03T01:21:18;101728.00;;;21.50
71649;BMP180;59492;45.638;11.714;2022-11-03T01:23:44;101733.00;;;21.50
71649;BMP180;59492;45.638;11.714;2022-11-03T01:26:10;101730.20;;;21.56
71649;BMP180;59492;45.638;11.714;2022-11-03T01:28:38;101732.00;;;21.50
71649;BMP180;59492;45.638;11.714;2022-11-03T01:31:08;101726.00;;;21.50
71649;BMP180;59492;45.638;11.714;2022-11-03T01:33:34;101722.20;;;21.46
71649;BMP180;59492;45.638;11.714;2022-11-03T01:36:00;101720.80;;;21.44
71649;BMP180;59492;45.638;11.714;2022-11-03T01:38:26;101717.40;;;21.40
71649;BMP180;59492;45.638;11.714;2022-11-03T01:40:52;101712.20;;;21.40
71649;BMP180;59492;45.638;11.714;2022-11-03T01:43:20;101712.20;;;21.40
71649;BMP180;59492;45.638;11.714;2022-11-03T01:45:49;101708.00;;;21.36
71649;BMP180;59492;45.638;11.714;2022-11-03T01:48:16;101704.80;;;21.30
71649;BMP180;59492;45.638;11.714;2022-11-03T01:50:44;101702.20;;;21.40
71649;BMP180;59492;45.638;11.714;2022-11-03T01:53:12;101698.20;;;21.40
71649;BMP180;59492;45.638;11.714;2022-11-03T01:55:38;101695.00;;;21.40
71649;BMP180;59492;45.638;11.714;2022-11-03T01:58:23;101693.40;;;21.38
71649;BMP180;59492;45.638;11.714;2022-11-03T02:00:53;101685.80;;;21.30
71649;BMP180;59492;45.638;11.714;2022-11-03T02:03:21;101680.80;;;21.30
71649;BMP180;59492;45.638;11.714;2022-11-03T02:05:47;101681.40;;;21.30
71649;BMP180;59492;45.638;11.714;2022-11-03T02:10:46;101670.00;;;21.26
71649;BMP180;59492;45.638;11.714;2022-11-03T02:13:19;101669.60;;;21.20
71649;BMP180;59492;45.638;11.714;2022-11-03T02:15:50;101663.00;;;21.20
71649;BMP180;59492;45.638;11.714;2022-11-03T02:18:20;101660.40;;;21.30
71649;BMP180;59492;45.638;11.714;2022-11-03T02:20:54;101661.00;;;21.30
71649;BMP180;59492;45.638;11.714;2022-11-03T02:23:34;101658.20;;;21.30
71649;BMP180;59492;45.638;11.714;2022-11-03T02:26:05;101654.40;;;21.20
71649;BMP180;59492;45.638;11.714;2022-11-03T02:28:33;101656.20;;;21.20
71649;BMP180;59492;45.638;11.714;2022-11-03T02:31:04;101657.40;;;21.20
71649;BMP180;59492;45.638;11.714;2022-11-03T02:33:52;101658.80;;;21.18
71649;BMP180;59492;45.638;11.714;2022-11-03T02:36:27;101652.60;;;21.10
71649;BMP180;59492;45.638;11.714;2022-11-03T02:39:02;101645.60;;;21.10
71649;BMP180;59492;45.638;11.714;2022-11-03T02:41:30;101645.20;;;21.10
71649;BMP180;59492;45.638;11.714;2022-11-03T02:43:58;101642.60;;;21.10
71649;BMP180;59492;45.638;11.714;2022-11-03T02:46:26;101644.80;;;21.20
71649;BMP180;59492;45.638;11.714;2022-11-03T02:48:52;101646.00;;;21.20
71649;BMP180;59492;45.638;11.714;2022-11-03T02:51:18;101644.80;;;21.20
71649;BMP180;59492;45.638;11.714;2022-11-03T02:53:55;101649.60;;;21.18
71649;BMP180;59492;45.638;11.714;2022-11-03T02:56:23;101646.80;;;21.10
71649;BMP180;59492;45.638;11.714;2022-11-03T02:58:54;101647.00;;;21.10
71649;BMP180;59492;45.638;11.714;2022-11-03T03:04:00;101648.00;;;21.06
71649;BMP180;59492;45.638;11.714;2022-11-03T03:06:36;101643.00;;;21.04
71649;BMP180;59492;45.638;11.714;2022-11-03T03:09:09;101640.20;;;21.00
71649;BMP180;59492;45.638;11.714;2022-11-03T03:11:40;101644.20;;;21.00
71649;BMP180;59492;45.638;11.714;2022-11-03T03:14:19;101648.20;;;21.10
71649;BMP180;59492;45.638;11.714;2022-11-03T03:19:29;101652.40;;;21.08
71649;BMP180;59492;45.638;11.714;2022-11-03T03:22:02;101651.40;;;21.02
71649;BMP180;59492;45.638;11.714;2022-11-03T03:27:17;101649.20;;;21.00
71649;BMP180;59492;45.638;11.714;2022-11-03T03:30:02;101646.80;;;21.00
71649;BMP180;59492;45.638;11.714;2022-11-03T03:32:30;101642.40;;;20.96
71649;BMP180;59492;45.638;11.714;2022-11-03T03:34:59;101639.60;;;20.98
71649;BMP180;59492;45.638;11.714;2022-11-03T03:37:28;101638.00;;;20.96
71649;BMP180;59492;45.638;11.714;2022-11-03T03:39:58;101639.60;;;20.96
71649;BMP180;59492;45.638;11.714;2022-11-03T03:42:29;101640.00;;;21.00
71649;BMP180;59492;45.638;11.714;2022-11-03T03:44:56;101638.20;;;21.00
71649;BMP180;59492;45.638;11.714;2022-11-03T03:47:30;101629.20;;;21.00
71649;BMP180;59492;45.638;11.714;2022-11-03T03:49:57;101624.00;;;21.00
71649;BMP180;59492;45.638;11.714;2022-11-03T03:52:24;101620.20;;;21.00
71649;BMP180;59492;45.638;11.714;2022-11-03T03:54:50;101620.40;;;20.96
71649;BMP180;59492;45.638;11.714;2022-11-03T03:57:19;101624.80;;;20.94
71649;BMP180;59492;45.638;11.714;2022-11-03T03:59:45;101625.80;;;20.90
71649;BMP180;59492;45.638;11.714;2022-11-03T04:02:12;101619.40;;;20.90
71649;BMP180;59492;45.638;11.714;2022-11-03T04:04:38;101618.20;;;20.90
71649;BMP180;59492;45.638;11.714;2022-11-03T04:07:04;101614.60;;;20.90
71649;BMP180;59492;45.638;11.714;2022-11-03T04:09:48;101611.00;;;20.90
71649;BMP180;59492;45.638;11.714;2022-11-03T04:12:14;101615.40;;;21.00
71649;BMP180;59492;45.638;11.714;2022-11-03T04:14:58;101618.00;;;20.92
71649;BMP180;59492;45.638;11.714;2022-11-03T04:17:44;101622.20;;;20.90
71649;BMP180;59492;45.638;11.714;2022-11-03T04:20:28;101624.40;;;20.90
71649;BMP180;59492;45.638;11.714;2022-11-03T04:23:13;101623.60;;;20.84
71649;BMP180;59492;45.638;11.714;2022-11-03T04:25:38;101620.00;;;20.88
71649;BMP180;59492;45.638;11.714;2022-11-03T04:28:10;101615.60;;;20.86
71649;BMP180;59492;45.638;11.714;2022-11-03T04:30:36;101619.20;;;20.82
71649;BMP180;59492;45.638;11.714;2022-11-03T04:33:08;101621.60;;;20.80
71649;BMP180;59492;45.638;11.714;2022-11-03T04:35:40;101625.00;;;20.80
71649;BMP180;59492;45.638;11.714;2022-11-03T04:38:22;101627.00;;;20.90
71649;BMP180;59492;45.638;11.714;2022-11-03T04:40:52;101620.40;;;20.90
71649;BMP180;59492;45.638;11.714;2022-11-03T04:43:21;101622.40;;;20.90
71649;BMP180;59492;45.638;11.714;2022-11-03T04:45:48;101623.40;;;20.90
71649;BMP180;59492;45.638;11.714;2022-11-03T04:48:17;101622.40;;;20.86
71649;BMP180;59492;45.638;11.714;2022-11-03T04:50:46;101622.60;;;20.84
71649;BMP180;59492;45.638;11.714;2022-11-03T04:53:14;101621.40;;;20.80
71649;BMP180;59492;45.638;11.714;2022-11-03T04:55:41;101616.60;;;20.80
71649;BMP180;59492;45.638;11.714;2022-11-03T04:58:22;101621.40;;;20.80
71649;BMP180;59492;45.638;11.714;2022-11-03T05:00:50;101615.40;;;20.78
71649;BMP180;59492;45.638;11.714;2022-11-03T05:03:22;101609.20;;;20.80
71649;BMP180;59492;45.638;11.714;2022-11-03T05:05:48;101606.00;;;20.80
71649;BMP180;59492;45.638;11.714;2022-11-03T05:08:16;101608.60;;;20.90
71649;BMP180;59492;45.638;11.714;2022-11-03T05:10:43;101607.60;;;20.88
71649;BMP180;59492;45.638;11.714;2022-11-03T05:13:18;101610.60;;;20.84
71649;BMP180;59492;45.638;11.714;2022-11-03T05:15:45;101605.00;;;20.80
71649;BMP180;59492;45.638;11.714;2022-11-03T05:18:26;101598.20;;;20.80
71649;BMP180;59492;45.638;11.714;2022-11-03T05:21:01;101592.80;;;20.78
71649;BMP180;59492;45.638;11.714;2022-11-03T05:23:30;101591.00;;;20.76
71649;BMP180;59492;45.638;11.714;2022-11-03T05:26:02;101588.00;;;20.76
71649;BMP180;59492;45.638;11.714;2022-11-03T05:28:41;101583.00;;;20.74
71649;BMP180;59492;45.638;11.714;2022-11-03T05:31:20;101580.20;;;20.80
71649;BMP180;59492;45.638;11.714;2022-11-03T05:33:47;101581.60;;;20.82
71649;BMP180;59492;45.638;11.714;2022-11-03T05:36:19;101580.60;;;20.82
71649;BMP180;59492;45.638;11.714;2022-11-03T05:38:44;101578.80;;;20.80
71649;BMP180;59492;45.638;11.714;2022-11-03T05:41:21;101580.00;;;20.80
71649;BMP180;59492;45.638;11.714;2022-11-03T05:44:24;101580.80;;;20.74
71649;BMP180;59492;45.638;11.714;2022-11-03T05:46:54;101578.60;;;20.70
71649;BMP180;59492;45.638;11.714;2022-11-03T05:49:21;101580.60;;;20.70
71649;BMP180;59492;45.638;11.714;2022-11-03T05:51:46;101580.80;;;20.70
71649;BMP180;59492;45.638;11.714;2022-11-03T05:54:22;101584.20;;;20.70
71649;BMP180;59492;45.638;11.714;2022-11-03T05:56:48;101583.20;;;20.70
71649;BMP180;59492;45.638;11.714;2022-11-03T05:59:22;101577.60;;;20.78
71649;BMP180;59492;45.638;11.714;2022-11-03T06:01:49;101576.60;;;20.80
71649;BMP180;59492;45.638;11.714;2022-11-03T06:04:36;101581.20;;;20.80
71649;BMP180;59492;45.638;11.714;2022-11-03T06:07:23;101583.60;;;20.70
71649;BMP180;59492;45.638;11.714;2022-11-03T06:09:51;101584.60;;;20.70
71649;BMP180;59492;45.638;11.714;2022-11-03T06:12:18;101586.40;;;20.70
71649;BMP180;59492;45.638;11.714;2022-11-03T06:14:45;101590.20;;;20.70
71649;BMP180;59492;45.638;11.714;2022-11-03T06:17:26;101582.80;;;20.70
71649;BMP180;59492;45.638;11.714;2022-11-03T06:19:55;101578.00;;;20.70
71649;BMP180;59492;45.638;11.714;2022-11-03T06:22:25;101583.20;;;20.70
71649;BMP180;59492;45.638;11.714;2022-11-03T06:24:55;101582.60;;;20.70
71649;BMP180;59492;45.638;11.714;2022-11-03T06:27:22;101585.00;;;20.80
71649;BMP180;59492;45.638;11.714;2022-11-03T06:29:56;101580.80;;;20.78
71649;BMP180;59492;45.638;11.714;2022-11-03T06:32:22;101577.80;;;20.70
71649;BMP180;59492;45.638;11.714;2022-11-03T06:34:51;101576.80;;;20.70
71649;BMP180;59492;45.638;11.714;2022-11-03T06:37:20;101575.00;;;20.70
71649;BMP180;59492;45.638;11.714;2022-11-03T06:39:48;101577.20;;;20.70
71649;BMP180;59492;45.638;11.714;2022-11-03T06:42:18;101582.20;;;20.70
71649;BMP180;59492;45.638;11.714;2022-11-03T06:44:47;101583.60;;;20.70
71649;BMP180;59492;45.638;11.714;2022-11-03T06:47:23;101587.00;;;20.70
71649;BMP180;59492;45.638;11.714;2022-11-03T06:49:51;101584.40;;;20.78
71649;BMP180;59492;45.638;11.714;2022-11-03T06:52:36;101582.20;;;20.80
71649;BMP180;59492;45.638;11.714;2022-11-03T06:57:40;101574.80;;;20.80
71649;BMP180;59492;45.638;11.714;2022-11-03T07:05:28;101590.40;;;20.80
71649;BMP180;59492;45.638;11.714;2022-11-03T07:08:01;101600.20;;;20.80
71649;BMP180;59492;45.638;11.714;2022-11-03T07:10:30;101603.40;;;20.86
71649;BMP180;59492;45.638;11.714;2022-11-03T07:13:05;101604.40;;;20.90
71649;BMP180;59492;45.638;11.714;2022-11-03T07:15:35;101613.80;;;20.90
71649;BMP180;59492;45.638;11.714;2022-11-03T07:18:24;101621.60;;;20.90
71649;BMP180;59492;45.638;11.714;2022-11-03T07:20:52;101621.20;;;20.96
71649;BMP180;59492;45.638;11.714;2022-11-03T07:23:22;101619.20;;;21.00
71649;BMP180;59492;45.638;11.714;2022-11-03T07:25:59;101617.80;;;21.00
71649;BMP180;59492;45.638;11.714;2022-11-03T07:28:36;101623.00;;;21.00
71649;BMP180;59492;45.638;11.714;2022-11-03T07:31:18;101619.40;;;21.00
71649;BMP180;59492;45.638;11.714;2022-11-03T07:33:45;101616.20;;;20.92
71649;BMP180;59492;45.638;11.714;2022-11-03T07:36:15;101617.00;;;20.94
71649;BMP180;59492;45.638;11.714;2022-11-03T07:38:44;101616.40;;;20.90
71649;BMP180;59492;45.638;11.714;2022-11-03T07:41:16;101612.60;;;20.90
71649;BMP180;59492;45.638;11.714;2022-11-03T07:43:49;101611.80;;;20.90
71649;BMP180;59492;45.638;11.714;2022-11-03T07:46:20;101613.40;;;21.00
71649;BMP180;59492;45.638;11.714;2022-11-03T07:49:07;101608.20;;;21.00
71649;BMP180;59492;45.638;11.714;2022-11-03T07:51:36;101606.00;;;21.00
71649;BMP180;59492;45.638;11.714;2022-11-03T07:54:09;101603.20;;;21.00
71649;BMP180;59492;45.638;11.714;2022-11-03T07:56:50;101597.00;;;20.98
71649;BMP180;59492;45.638;11.714;2022-11-03T07:59:21;101592.80;;;20.94
71649;BMP180;59492;45.638;11.714;2022-11-03T08:01:53;101589.20;;;20.98
71649;BMP180;59492;45.638;11.714;2022-11-03T08:04:30;101591.60;;;20.98
71649;BMP180;59492;45.638;11.714;2022-11-03T08:06:56;101589.40;;;21.00
71649;BMP180;59492;45.638;11.714;2022-11-03T08:09:22;101588.40;;;21.10
71649;BMP180;59492;45.638;11.714;2022-11-03T08:11:49;101591.80;;;21.10
71649;BMP180;59492;45.638;11.714;2022-11-03T08:14:18;101587.60;;;21.10
71649;BMP180;59492;45.638;11.714;2022-11-03T08:16:48;101589.00;;;21.10
71649;BMP180;59492;45.638;11.714;2022-11-03T08:19:15;101587.00;;;21.10
71649;BMP180;59492;45.638;11.714;2022-11-03T08:21:41;101582.60;;;21.10
71649;BMP180;59492;45.638;11.714;2022-11-03T08:24:13;101581.40;;;21.10
71649;BMP180;59492;45.638;11.714;2022-11-03T08:26:44;101580.00;;;21.10
71649;BMP180;59492;45.638;11.714;2022-11-03T08:29:09;101576.00;;;21.14
71649;BMP180;59492;45.638;11.714;2022-11-03T08:31:37;101570.40;;;21.10
71649;BMP180;59492;45.638;11.714;2022-11-03T08:34:03;101566.20;;;21.20
71649;BMP180;59492;45.638;11.714;2022-11-03T08:36:29;101565.20;;;21.30
71649;BMP180;59492;45.638;11.714;2022-11-03T08:38:55;101558.60;;;21.30
71649;BMP180;59492;45.638;11.714;2022-11-03T08:41:20;101558.60;;;21.30
71649;BMP180;59492;45.638;11.714;2022-11-03T08:43:46;101558.80;;;21.30
71649;BMP180;59492;45.638;11.714;2022-11-03T08:46:11;101557.60;;;21.30
71649;BMP180;59492;45.638;11.714;2022-11-03T08:48:37;101549.20;;;21.30
71649;BMP180;59492;45.638;11.714;2022-11-03T08:51:03;101547.60;;;21.30
71649;BMP180;59492;45.638;11.714;2022-11-03T08:53:29;101546.60;;;21.30
71649;BMP180;59492;45.638;11.714;2022-11-03T09:20:37;101532.60;;;21.76
71649;BMP180;59492;45.638;11.714;2022-11-03T09:23:03;101525.60;;;21.80
71649;BMP180;59492;45.638;11.714;2022-11-03T09:25:28;101522.00;;;21.90
71649;BMP180;59492;45.638;11.714;2022-11-03T09:27:54;101519.60;;;21.90
71649;BMP180;59492;45.638;11.714;2022-11-03T09:30:20;101517.00;;;21.90
71649;BMP180;59492;45.638;11.714;2022-11-03T09:32:46;101520.00;;;21.90
71649;BMP180;59492;45.638;11.714;2022-11-03T09:35:11;101522.20;;;21.90
71649;BMP180;59492;45.638;11.714;2022-11-03T09:37:39;101519.60;;;21.88
71649;BMP180;59492;45.638;11.714;2022-11-03T09:40:06;101517.20;;;21.86
71649;BMP180;59492;45.638;11.714;2022-11-03T09:42:33;101511.60;;;21.82
71649;BMP180;59492;45.638;11.714;2022-11-03T09:45:00;101508.00;;;21.90
71649;BMP180;59492;45.638;11.714;2022-11-03T09:47:31;101508.20;;;22.00
71649;BMP180;59492;45.638;11.714;2022-11-03T09:49:58;101502.40;;;22.00
71649;BMP180;59492;45.638;11.714;2022-11-03T09:52:24;101499.40;;;22.10
71649;BMP180;59492;45.638;11.714;2022-11-03T09:54:51;101500.20;;;22.20
71649;BMP180;59492;45.638;11.714;2022-11-03T09:57:20;101501.20;;;22.30
71649;BMP180;59492;45.638;11.714;2022-11-03T09:59:48;101498.00;;;22.40
71649;BMP180;59492;45.638;11.714;2022-11-03T10:02:24;101495.00;;;22.50
71649;BMP180;59492;45.638;11.714;2022-11-03T10:04:52;101489.80;;;22.50
71649;BMP180;59492;45.638;11.714;2022-11-03T10:07:19;101484.00;;;22.60
71649;BMP180;59492;45.638;11.714;2022-11-03T10:09:48;101482.20;;;22.60
71649;BMP180;59492;45.638;11.714;2022-11-03T10:12:15;101482.40;;;22.70
71649;BMP180;59492;45.638;11.714;2022-11-03T10:14:43;101472.00;;;22.70
71649;BMP180;59492;45.638;11.714;2022-11-03T10:17:17;101470.60;;;22.70
71649;BMP180;59492;45.638;11.714;2022-11-03T10:19:48;101468.20;;;22.70
71649;BMP180;59492;45.638;11.714;2022-11-03T10:22:16;101459.60;;;22.68
71649;BMP180;59492;45.638;11.714;2022-11-03T10:24:42;101453.80;;;22.70
71649;BMP180;59492;45.638;11.714;2022-11-03T10:27:28;101448.00;;;22.70
71649;BMP180;59492;45.638;11.714;2022-11-03T10:30:04;101447.80;;;22.68
71649;BMP180;59492;45.638;11.714;2022-11-03T10:32:32;101442.80;;;22.60
71649;BMP180;59492;45.638;11.714;2022-11-03T10:35:02;101443.40;;;22.60
71649;BMP180;59492;45.638;11.714;2022-11-03T10:37:28;101445.00;;;22.52
71649;BMP180;59492;45.638;11.714;2022-11-03T10:39:56;101442.40;;;22.50
71649;BMP180;59492;45.638;11.714;2022-11-03T10:42:27;101440.00;;;22.44
71649;BMP180;59492;45.638;11.714;2022-11-03T10:45:16;101439.00;;;22.40
71649;BMP180;59492;45.638;11.714;2022-11-03T10:47:42;101434.60;;;22.40
71649;BMP180;59492;45.638;11.714;2022-11-03T10:50:22;101432.20;;;22.36
71649;BMP180;59492;45.638;11.714;2022-11-03T10:52:49;101430.40;;;22.30
71649;BMP180;59492;45.638;11.714;2022-11-03T10:55:17;101426.80;;;22.40
71649;BMP180;59492;45.638;11.714;2022-11-03T10:57:44;101417.20;;;22.40
71649;BMP180;59492;45.638;11.714;2022-11-03T11:00:17;101412.40;;;22.40
71649;BMP180;59492;45.638;11.714;2022-11-03T11:02:43;101409.00;;;22.40
71649;BMP180;59492;45.638;11.714;2022-11-03T11:05:20;101404.00;;;22.30
71649;BMP180;59492;45.638;11.714;2022-11-03T11:07:47;101401.40;;;22.30
71649;BMP180;59492;45.638;11.714;2022-11-03T11:10:21;101395.80;;;22.30
71649;BMP180;59492;45.638;11.714;2022-11-03T11:15:58;101394.60;;;22.30
71649;BMP180;59492;45.638;11.714;2022-11-03T11:20:56;101389.80;;;22.40
71649;BMP180;59492;45.638;11.714;2022-11-03T11:28:41;101384.60;;;22.50
71649;BMP180;59492;45.638;11.714;2022-11-03T11:31:30;101379.80;;;22.60
71649;BMP180;59492;45.638;11.714;2022-11-03T11:36:35;101363.20;;;22.60
71649;BMP180;59492;45.638;11.714;2022-11-03T11:39:03;101354.60;;;22.68
71649;BMP180;59492;45.638;11.714;2022-11-03T11:52:55;101348.60;;;22.70
71649;BMP180;59492;45.638;11.714;2022-11-03T11:57:53;101337.40;;;22.76
71649;BMP180;59492;45.638;11.714;2022-11-03T12:00:20;101325.80;;;22.78
71649;BMP180;59492;45.638;11.714;2022-11-03T12:02:46;101322.00;;;22.70
71649;BMP180;59492;45.638;11.714;2022-11-03T12:05:22;101324.60;;;22.70
71649;BMP180;59492;45.638;11.714;2022-11-03T12:07:47;101321.20;;;22.60
71649;BMP180;59492;45.638;11.714;2022-11-03T12:10:14;101327.80;;;22.60
71649;BMP180;59492;45.638;11.714;2022-11-03T12:12:40;101325.60;;;22.60
71649;BMP180;59492;45.638;11.714;2022-11-03T12:15:46;101323.80;;;22.60
71649;BMP180;59492;45.638;11.714;2022-11-03T12:17:51;101318.80;;;22.50
71649;BMP180;59492;45.638;11.714;2022-11-03T12:20:42;101319.00;;;22.50
71649;BMP180;59492;45.638;11.714;2022-11-03T12:23:10;101316.40;;;22.46
71649;BMP180;59492;45.638;11.714;2022-11-03T12:25:35;101310.80;;;22.40
71649;BMP180;59492;45.638;11.714;2022-11-03T12:28:01;101310.60;;;22.40
71649;BMP180;59492;45.638;11.714;2022-11-03T12:30:27;101305.40;;;22.40
71649;BMP180;59492;45.638;11.714;2022-11-03T12:32:53;101292.20;;;22.30
71649;BMP180;59492;45.638;11.714;2022-11-03T12:35:19;101292.20;;;22.30
71649;BMP180;59492;45.638;11.714;2022-11-03T12:37:44;101288.00;;;22.30
71649;BMP180;59492;45.638;11.714;2022-11-03T12:40:11;101287.60;;;22.30
71649;BMP180;59492;45.638;11.714;2022-11-03T12:42:37;101281.40;;;22.30
71649;BMP180;59492;45.638;11.714;2022-11-03T12:45:03;101276.60;;;22.30
71649;BMP180;59492;45.638;11.714;2022-11-03T12:47:29;101273.60;;;22.30
71649;BMP180;59492;45.638;11.714;2022-11-03T12:49:57;101264.20;;;22.20
71649;BMP180;59492;45.638;11.714;2022-11-03T12:52:23;101262.40;;;22.20
71649;BMP180;59492;45.638;11.714;2022-11-03T12:54:49;101254.00;;;22.20
71649;BMP180;59492;45.638;11.714;2022-11-03T12:57:15;101252.00;;;22.20
71649;BMP180;59492;45.638;11.714;2022-11-03T12:59:40;101251.80;;;22.20
71649;BMP180;59492;45.638;11.714;2022-11-03T13:02:07;101244.80;;;22.20
71649;BMP180;59492;45.638;11.714;2022-11-03T13:04:34;101242.00;;;22.20
71649;BMP180;59492;45.638;11.714;2022-11-03T13:07:00;101240.00;;;22.20
71649;BMP180;59492;45.638;11.714;2022-11-03T13:09:25;101239.80;;;22.20
71649;BMP180;59492;45.638;11.714;2022-11-03T13:11:51;101231.00;;;22.20
71649;BMP180;59492;45.638;11.714;2022-11-03T13:14:35;101225.60;;;22.20
71649;BMP180;59492;45.638;11.714;2022-11-03T13:17:01;101220.20;;;22.10
71649;BMP180;59492;45.638;11.714;2022-11-03T13:19:28;101219.20;;;22.10
71649;BMP180;59492;45.638;11.714;2022-11-03T13:21:54;101214.40;;;22.10
71649;BMP180;59492;45.638;11.714;2022-11-03T13:24:20;101210.40;;;22.10
71649;BMP180;59492;45.638;11.714;2022-11-03T13:26:48;101200.60;;;22.10
71649;BMP180;59492;45.638;11.714;2022-11-03T13:29:16;101196.80;;;22.10
71649;BMP180;59492;45.638;11.714;2022-11-03T13:31:42;101199.20;;;22.10
71649;BMP180;59492;45.638;11.714;2022-11-03T13:34:09;101194.40;;;22.10
71649;BMP180;59492;45.638;11.714;2022-11-03T13:36:35;101193.40;;;22.10
71649;BMP180;59492;45.638;11.714;2022-11-03T13:39:05;101197.00;;;22.10
71649;BMP180;59492;45.638;11.714;2022-11-03T13:41:32;101200.20;;;22.10
71649;BMP180;59492;45.638;11.714;2022-11-03T13:43:59;101199.80;;;22.20
71649;BMP180;59492;45.638;11.714;2022-11-03T13:46:28;101199.00;;;22.20
71649;BMP180;59492;45.638;11.714;2022-11-03T13:48:55;101193.20;;;22.20
71649;BMP180;59492;45.638;11.714;2022-11-03T13:51:21;101185.40;;;22.20
71649;BMP180;59492;45.638;11.714;2022-11-03T13:53:47;101183.60;;;22.20
71649;BMP180;59492;45.638;11.714;2022-11-03T13:56:13;101178.60;;;22.20
71649;BMP180;59492;45.638;11.714;2022-11-03T13:58:43;101176.80;;;22.20
71649;BMP180;59492;45.638;11.714;2022-11-03T14:01:12;101170.80;;;22.20
71649;BMP180;59492;45.638;11.714;2022-11-03T14:03:42;101169.40;;;22.20
71649;BMP180;59492;45.638;11.714;2022-11-03T14:06:08;101170.20;;;22.14
71649;BMP180;59492;45.638;11.714;2022-11-03T14:08:35;101164.40;;;22.10
71649;BMP180;59492;45.638;11.714;2022-11-03T14:11:03;101167.00;;;22.10
71649;BMP180;59492;45.638;11.714;2022-11-03T14:13:51;101164.20;;;22.00
71649;BMP180;59492;45.638;11.714;2022-11-03T14:16:21;101162.20;;;22.00
71649;BMP180;59492;45.638;11.714;2022-11-03T14:18:48;101162.00;;;22.00
71649;BMP180;59492;45.638;11.714;2022-11-03T14:21:17;101162.40;;;22.00
71649;BMP180;59492;45.638;11.714;2022-11-03T14:23:45;101165.80;;;21.96
71649;BMP180;59492;45.638;11.714;2022-11-03T14:26:14;101164.00;;;21.90
71649;BMP180;59492;45.638;11.714;2022-11-03T14:28:42;101161.00;;;21.90
71649;BMP180;59492;45.638;11.714;2022-11-03T14:31:08;101157.20;;;21.90
71649;BMP180;59492;45.638;11.714;2022-11-03T14:33:35;101144.60;;;21.82
71649;BMP180;59492;45.638;11.714;2022-11-03T14:36:01;101133.40;;;21.80
71649;BMP180;59492;45.638;11.714;2022-11-03T14:38:27;101134.40;;;21.80
71649;BMP180;59492;45.638;11.714;2022-11-03T14:40:55;101147.80;;;21.80
71649;BMP180;59492;45.638;11.714;2022-11-03T14:43:41;101141.80;;;21.70
71649;BMP180;59492;45.638;11.714;2022-11-03T14:46:09;101129.80;;;21.70
71649;BMP180;59492;45.638;11.714;2022-11-03T14:48:38;101121.20;;;21.70
71649;BMP180;59492;45.638;11.714;2022-11-03T14:51:04;101112.20;;;21.70
71649;BMP180;59492;45.638;11.714;2022-11-03T14:53:30;101124.80;;;21.70
71649;BMP180;59492;45.638;11.714;2022-11-03T14:55:57;101128.00;;;21.60
71649;BMP180;59492;45.638;11.714;2022-11-03T14:58:23;101124.60;;;21.60
71649;BMP180;59492;45.638;11.714;2022-11-03T15:00:48;101118.60;;;21.60
71649;BMP180;59492;45.638;11.714;2022-11-03T15:03:14;101118.20;;;21.60
71649;BMP180;59492;45.638;11.714;2022-11-03T15:05:39;101116.20;;;21.60
71649;BMP180;59492;45.638;11.714;2022-11-03T15:08:11;101113.60;;;21.50
71649;BMP180;59492;45.638;11.714;2022-11-03T15:10:37;101108.80;;;21.50
71649;BMP180;59492;45.638;11.714;2022-11-03T15:13:02;101103.00;;;21.50
71649;BMP180;59492;45.638;11.714;2022-11-03T15:15:28;101098.20;;;21.50